Time;durP1;ratioP1;P1;durP2;ratioP2;P2;SDS_P1;SDS_P2;PMS_P1;PMS_P2;Temp;Humidity;BMP_temperature;BMP_pressure;BME280_temperature;BME280_humidity;BME280_pressure;Samples;Min_cycle;Max_cycle;Signal;HPM_P1;HPM_P2
2022/05/22 00:01:47;;;;;;;1.05;0.63;;;23.60;58.10;;;;;;4967348;28;20084;-15
2022/05/22 00:04:13;;;;;;;0.80;0.60;;;23.50;58.10;;;;;;4975113;28;20046;-15
2022/05/22 00:06:39;;;;;;;0.40;0.32;;;23.50;58.20;;;;;;4977974;28;20097;-15
2022/05/22 00:09:04;;;;;;;1.42;0.32;;;23.50;58.20;;;;;;4978186;28;20057;-16
2022/05/22 00:11:30;;;;;;;0.80;0.50;;;23.50;58.10;;;;;;4975789;28;20491;-15
2022/05/22 00:13:55;;;;;;;0.50;0.50;;;23.50;58.30;;;;;;4977080;28;20109;-17
2022/05/22 00:16:36;;;;;;;0.60;0.40;;;23.50;58.00;;;;;;4976129;28;20039;-17
2022/05/22 00:19:12;;;;;;;0.52;0.50;;;23.50;58.10;;;;;;4990695;28;20050;-16
2022/05/22 00:21:38;;;;;;;0.20;0.20;;;23.60;58.00;;;;;;4964665;28;20054;-17
2022/05/22 00:24:04;;;;;;;1.45;1.13;;;23.50;58.10;;;;;;4975319;28;20054;-15
2022/05/22 00:26:30;;;;;;;0.35;0.30;;;23.50;58.00;;;;;;4977047;28;20121;-15
2022/05/22 00:28:55;;;;;;;0.40;0.40;;;23.60;58.00;;;;;;4966242;28;20078;-17
2022/05/22 00:31:21;;;;;;;0.40;0.40;;;23.50;58.00;;;;;;4974378;28;20050;-16
2022/05/22 00:33:47;;;;;;;1.23;0.57;;;23.50;58.10;;;;;;4989245;28;20173;-15
2022/05/22 00:36:12;;;;;;;0.20;0.20;;;23.50;58.10;;;;;;4977040;28;20057;-16
2022/05/22 00:38:38;;;;;;;1.08;0.30;;;23.50;58.10;;;;;;4977166;28;20831;-16
2022/05/22 00:41:04;;;;;;;0.90;0.52;;;23.50;58.30;;;;;;4976393;28;20066;-16
2022/05/22 00:43:32;;;;;;;0.75;0.40;;;23.50;58.10;;;;;;4968029;28;20050;-15
2022/05/22 00:45:58;;;;;;;0.60;0.50;;;23.50;58.30;;;;;;4976661;28;20095;-15
2022/05/22 00:48:24;;;;;;;0.60;0.32;;;23.40;58.20;;;;;;4976632;28;20152;-15
2022/05/22 00:50:50;;;;;;;0.43;0.38;;;23.50;58.20;;;;;;4970711;28;20043;-16
2022/05/22 00:53:16;;;;;;;0.93;0.80;;;23.40;58.20;;;;;;4946132;28;20051;-16
2022/05/22 00:55:41;;;;;;;0.80;0.60;;;23.40;58.20;;;;;;4974765;28;20138;-16
2022/05/22 00:58:16;;;;;;;0.73;0.73;;;23.50;58.20;;;;;;4976616;28;20129;-15
2022/05/22 01:00:42;;;;;;;0.77;0.77;;;23.40;58.30;;;;;;4973215;28;20100;-16
2022/05/22 01:03:28;;;;;;;0.88;0.60;;;23.40;58.30;;;;;;4973291;28;20047;-17
2022/05/22 01:06:01;;;;;;;1.17;0.65;;;23.40;58.20;;;;;;4961784;28;20504;-15
2022/05/22 01:08:27;;;;;;;0.90;0.30;;;23.40;58.30;;;;;;4976356;28;20066;-15
2022/05/22 01:11:03;;;;;;;0.50;0.40;;;23.40;58.50;;;;;;4976667;28;20522;-16
2022/05/22 01:13:46;;;;;;;0.70;0.40;;;23.40;58.40;;;;;;4974431;28;20416;-15
2022/05/22 01:16:12;;;;;;;0.52;0.52;;;23.40;58.40;;;;;;4973364;28;20042;-15
2022/05/22 01:18:48;;;;;;;0.50;0.40;;;23.40;58.30;;;;;;4957553;28;20539;-16
2022/05/22 01:21:16;;;;;;;0.40;0.40;;;23.40;58.20;;;;;;4969652;28;20043;-16
2022/05/22 01:23:42;;;;;;;0.63;0.40;;;23.40;58.20;;;;;;4976393;28;20050;-15
2022/05/22 01:26:07;;;;;;;0.85;0.30;;;23.40;58.20;;;;;;4976070;28;20039;-17
2022/05/22 01:28:33;;;;;;;0.93;0.30;;;23.40;58.30;;;;;;4976400;28;20051;-15
2022/05/22 01:31:00;;;;;;;0.90;0.43;;;23.40;58.30;;;;;;4975939;28;20527;-16
2022/05/22 01:33:26;;;;;;;0.40;0.40;;;23.40;58.10;;;;;;4975872;28;20101;-16
2022/05/22 01:35:52;;;;;;;0.50;0.50;;;23.40;58.20;;;;;;4976692;28;20050;-15
2022/05/22 01:38:17;;;;;;;0.47;0.40;;;23.40;58.10;;;;;;4974921;28;20043;-16
2022/05/22 01:40:43;;;;;;;1.00;0.65;;;23.40;58.10;;;;;;4976580;28;20046;-15
2022/05/22 01:43:09;;;;;;;0.75;0.50;;;23.40;58.10;;;;;;4976625;28;20042;-16
2022/05/22 01:45:34;;;;;;;0.90;0.60;;;23.40;58.10;;;;;;4975487;28;20050;-16
2022/05/22 01:48:00;;;;;;;0.60;0.60;;;23.40;58.20;;;;;;4976351;28;20436;-16
2022/05/22 01:50:26;;;;;;;0.73;0.55;;;23.40;58.20;;;;;;4975894;28;20516;-15
2022/05/22 01:52:51;;;;;;;0.75;0.70;;;23.40;58.10;;;;;;4975464;28;20526;-17
2022/05/22 01:55:17;;;;;;;0.50;0.50;;;23.40;58.20;;;;;;4975469;28;20915;-15
2022/05/22 01:57:43;;;;;;;0.60;0.57;;;23.40;58.10;;;;;;4976430;28;20500;-15
2022/05/22 02:00:10;;;;;;;0.52;0.40;;;23.40;58.10;;;;;;4976402;28;20691;-16
2022/05/22 02:02:36;;;;;;;0.60;0.52;;;23.40;58.20;;;;;;4975189;28;20050;-15
2022/05/22 02:05:02;;;;;;;0.73;0.73;;;23.40;58.10;;;;;;4976235;28;20048;-16
2022/05/22 02:10:13;;;;;;;0.65;0.60;;;23.30;58.20;;;;;;4975811;28;20073;-15
2022/05/22 02:12:38;;;;;;;0.52;0.50;;;23.30;58.20;;;;;;4976305;28;20063;-16
2022/05/22 02:15:05;;;;;;;0.50;0.50;;;23.30;58.20;;;;;;4975897;28;20066;-16
2022/05/22 02:17:31;;;;;;;0.75;0.60;;;23.30;58.30;;;;;;4978380;28;20423;-16
2022/05/22 02:19:57;;;;;;;0.47;0.32;;;23.40;58.20;;;;;;4980226;28;20130;-16
2022/05/22 02:22:23;;;;;;;0.90;0.40;;;23.30;58.30;;;;;;4979152;28;20086;-15
2022/05/22 02:24:50;;;;;;;1.50;0.70;;;23.30;58.30;;;;;;4980104;28;20039;-16
2022/05/22 02:27:16;;;;;;;0.65;0.63;;;23.30;58.10;;;;;;4977377;28;20523;-16
2022/05/22 02:29:41;;;;;;;0.55;0.50;;;23.30;58.30;;;;;;4980007;28;20050;-15
2022/05/22 02:32:07;;;;;;;0.47;0.47;;;23.30;58.20;;;;;;4979791;28;20042;-17
2022/05/22 02:34:33;;;;;;;0.80;0.45;;;23.30;58.30;;;;;;4978537;28;20109;-16
2022/05/22 02:36:59;;;;;;;0.40;0.40;;;23.30;58.30;;;;;;4979680;28;20043;-15
2022/05/22 02:39:25;;;;;;;0.57;0.38;;;23.30;58.40;;;;;;4976605;28;20532;-16
2022/05/22 02:41:51;;;;;;;0.65;0.50;;;23.20;58.30;;;;;;4979754;28;20388;-17
2022/05/22 02:44:16;;;;;;;0.63;0.43;;;23.20;58.30;;;;;;4979172;28;20050;-16
2022/05/22 02:46:42;;;;;;;0.55;0.40;;;23.20;58.40;;;;;;4979320;28;20474;-17
2022/05/22 02:49:08;;;;;;;0.90;0.40;;;23.20;58.40;;;;;;4979001;28;20042;-16
2022/05/22 02:51:33;;;;;;;2.10;1.02;;;23.20;58.30;;;;;;4978875;28;20054;-16
2022/05/22 02:53:59;;;;;;;1.15;0.80;;;23.30;58.30;;;;;;4978061;28;20049;-16
2022/05/22 02:56:25;;;;;;;0.77;0.65;;;23.20;58.30;;;;;;4977431;28;20043;-16
2022/05/22 02:58:50;;;;;;;1.70;0.70;;;23.20;58.30;;;;;;4973133;28;20047;-16
2022/05/22 03:01:16;;;;;;;0.60;0.50;;;23.20;58.40;;;;;;4959559;28;20071;-15
2022/05/22 03:03:41;;;;;;;0.45;0.45;;;23.20;58.40;;;;;;4962568;28;20130;-15
2022/05/22 03:08:52;;;;;;;0.52;0.40;;;23.20;58.30;;;;;;4978756;28;20117;-15
2022/05/22 03:11:17;;;;;;;0.60;0.57;;;23.20;58.30;;;;;;4977833;28;20047;-16
2022/05/22 03:13:43;;;;;;;0.57;0.40;;;23.20;58.30;;;;;;4979129;28;20086;-16
2022/05/22 03:16:08;;;;;;;0.88;0.52;;;23.30;58.40;;;;;;4963606;28;20075;-15
2022/05/22 03:18:34;;;;;;;0.50;0.50;;;23.20;58.40;;;;;;4959049;28;20101;-19
2022/05/22 03:20:59;;;;;;;0.60;0.60;;;23.20;58.30;;;;;;4960385;28;20035;-17
2022/05/22 03:23:25;;;;;;;0.52;0.40;;;23.20;58.30;;;;;;4978101;28;20050;-15
2022/05/22 03:25:51;;;;;;;1.05;0.63;;;23.20;58.40;;;;;;4978923;28;20120;-15
2022/05/22 03:28:18;;;;;;;1.38;0.30;;;23.20;58.40;;;;;;4976986;28;20800;-17
2022/05/22 03:30:43;;;;;;;1.08;0.70;;;23.20;58.40;;;;;;4978860;28;20039;-17
2022/05/22 03:33:09;;;;;;;1.25;0.40;;;23.20;58.50;;;;;;4977647;28;20389;-15
2022/05/22 03:35:34;;;;;;;0.43;0.40;;;23.20;58.40;;;;;;4978003;28;20058;-15
2022/05/22 03:38:01;;;;;;;0.50;0.50;;;23.20;58.50;;;;;;4978571;28;20050;-16
2022/05/22 03:40:27;;;;;;;0.30;0.30;;;23.20;58.40;;;;;;4978079;28;20039;-16
2022/05/22 03:42:53;;;;;;;0.50;0.35;;;23.20;58.50;;;;;;4978135;28;20043;-17
2022/05/22 03:45:18;;;;;;;0.93;0.52;;;23.20;58.50;;;;;;4977955;28;20078;-15
2022/05/22 03:47:44;;;;;;;0.70;0.50;;;23.10;58.60;;;;;;4978426;28;20047;-15
2022/05/22 03:50:11;;;;;;;0.82;0.65;;;23.10;58.50;;;;;;4977929;28;20038;-16
2022/05/22 03:52:40;;;;;;;0.80;0.50;;;23.10;58.60;;;;;;4977358;28;20054;-15
2022/05/22 03:55:07;;;;;;;0.68;0.50;;;23.10;58.70;;;;;;4978401;28;20051;-15
2022/05/22 03:57:33;;;;;;;5.82;0.82;;;23.10;58.70;;;;;;4977205;28;20039;-15
2022/05/22 03:59:59;;;;;;;0.85;0.50;;;23.10;58.80;;;;;;4978350;28;20038;-15
2022/05/22 04:02:24;;;;;;;0.68;0.60;;;23.10;58.60;;;;;;4977297;28;20101;-15
2022/05/22 04:04:50;;;;;;;0.43;0.43;;;23.10;58.50;;;;;;4972091;28;20050;-16
2022/05/22 04:07:16;;;;;;;0.40;0.40;;;23.10;58.50;;;;;;4958821;28;20102;-15
2022/05/22 04:09:42;;;;;;;0.60;0.60;;;23.10;58.60;;;;;;4958233;28;20043;-17
2022/05/22 04:12:09;;;;;;;0.68;0.68;;;23.10;58.50;;;;;;4973771;28;20046;-15
2022/05/22 04:14:35;;;;;;;0.70;0.70;;;23.10;58.60;;;;;;4977375;28;20043;-15
2022/05/22 04:17:00;;;;;;;1.17;0.60;;;23.10;58.60;;;;;;4976665;28;20653;-16
2022/05/22 04:19:26;;;;;;;0.75;0.70;;;23.10;58.50;;;;;;4974423;28;20049;-15
2022/05/22 04:21:51;;;;;;;0.50;0.40;;;23.10;58.50;;;;;;4977664;28;20501;-16
2022/05/22 04:27:05;;;;;;;0.65;0.50;;;23.10;58.50;;;;;;4977370;28;20085;-15
2022/05/22 04:29:34;;;;;;;0.57;0.50;;;23.10;58.60;;;;;;4977334;28;20039;-15
2022/05/22 04:32:00;;;;;;;0.40;0.38;;;23.00;58.80;;;;;;4977575;28;20508;-16
2022/05/22 04:34:26;;;;;;;0.60;0.30;;;23.00;58.70;;;;;;4976303;28;20445;-15
2022/05/22 04:36:51;;;;;;;0.98;0.55;;;23.00;58.80;;;;;;4977529;28;20447;-16
2022/05/22 04:39:17;;;;;;;1.00;0.60;;;23.00;58.60;;;;;;4977559;28;20145;-16
2022/05/22 04:41:42;;;;;;;0.30;0.25;;;23.00;58.70;;;;;;4976986;28;20871;-16
2022/05/22 04:44:08;;;;;;;0.40;0.40;;;23.00;58.70;;;;;;4964051;28;20039;-16
2022/05/22 04:46:34;;;;;;;0.60;0.40;;;23.00;58.80;;;;;;4958317;28;20405;-16
2022/05/22 04:48:59;;;;;;;1.25;0.40;;;23.00;58.70;;;;;;4975031;28;20078;-16
2022/05/22 04:51:25;;;;;;;0.40;0.40;;;23.00;58.70;;;;;;4976804;28;20097;-17
2022/05/22 04:53:51;;;;;;;0.50;0.50;;;23.00;58.80;;;;;;4977245;28;20065;-15
2022/05/22 04:56:16;;;;;;;0.63;0.50;;;23.00;58.80;;;;;;4961053;28;20047;-16
2022/05/22 04:58:42;;;;;;;0.50;0.47;;;23.00;58.70;;;;;;4957318;28;20130;-16
2022/05/22 05:01:08;;;;;;;0.52;0.40;;;23.00;58.80;;;;;;4957976;28;20133;-15
2022/05/22 05:03:34;;;;;;;0.55;0.43;;;23.00;58.70;;;;;;4958906;28;20046;-16
2022/05/22 05:06:00;;;;;;;0.50;0.40;;;23.00;58.60;;;;;;4977121;28;20042;-17
2022/05/22 05:08:26;;;;;;;0.70;0.60;;;23.00;58.70;;;;;;4965336;28;20508;-15
2022/05/22 05:10:52;;;;;;;0.40;0.30;;;23.00;58.70;;;;;;4962755;28;20055;-16
2022/05/22 05:13:21;;;;;;;0.52;0.40;;;23.00;58.50;;;;;;4977130;28;20131;-16
2022/05/22 05:16:00;;;;;;;0.77;0.57;;;23.00;58.60;;;;;;4976429;28;20039;-17
2022/05/22 05:18:25;;;;;;;0.40;0.40;;;23.00;58.60;;;;;;4974997;28;20049;-16
2022/05/22 05:20:51;;;;;;;0.60;0.60;;;23.00;58.60;;;;;;4977030;28;20043;-18
2022/05/22 05:23:17;;;;;;;0.50;0.50;;;23.00;58.60;;;;;;4975244;28;20055;-16
2022/05/22 05:25:42;;;;;;;0.70;0.50;;;23.00;58.80;;;;;;4975533;28;20046;-16
2022/05/22 05:28:08;;;;;;;0.57;0.50;;;22.90;58.80;;;;;;4976435;28;20051;-16
2022/05/22 05:30:33;;;;;;;0.70;0.50;;;22.90;58.90;;;;;;4976307;28;20097;-16
2022/05/22 05:32:59;;;;;;;0.38;0.22;;;22.90;59.00;;;;;;4975930;28;20039;-16
2022/05/22 05:35:24;;;;;;;0.32;0.32;;;22.90;58.80;;;;;;4975951;28;20043;-16
2022/05/22 05:37:51;;;;;;;0.57;0.50;;;22.90;58.90;;;;;;4975954;28;20050;-16
2022/05/22 05:40:17;;;;;;;0.80;0.68;;;22.90;58.80;;;;;;4976415;28;20039;-17
2022/05/22 05:42:42;;;;;;;0.52;0.45;;;23.00;58.80;;;;;;4976099;28;20062;-16
2022/05/22 05:45:09;;;;;;;0.60;0.50;;;22.90;58.90;;;;;;4976717;28;20042;-16
2022/05/22 05:47:34;;;;;;;1.00;0.70;;;22.90;58.90;;;;;;4974577;28;20524;-16
2022/05/22 05:50:00;;;;;;;1.00;0.60;;;22.90;58.90;;;;;;4976312;28;20406;-16
2022/05/22 05:52:26;;;;;;;0.73;0.50;;;23.00;58.80;;;;;;4975534;28;20043;-16
2022/05/22 05:54:51;;;;;;;0.60;0.60;;;23.00;58.90;;;;;;4958683;28;20055;-16
2022/05/22 05:57:17;;;;;;;1.15;0.60;;;23.00;58.90;;;;;;4957188;28;20073;-16
2022/05/22 05:59:42;;;;;;;0.70;0.43;;;23.00;58.90;;;;;;4956816;28;20062;-16
2022/05/22 06:02:16;;;;;;;0.73;0.52;;;22.90;59.00;;;;;;4956798;28;20094;-15
2022/05/22 06:04:42;;;;;;;0.40;0.40;;;22.90;58.90;;;;;;4967343;28;20066;-15
2022/05/22 06:07:08;;;;;;;0.70;0.38;;;22.90;59.10;;;;;;4976337;28;20050;-17
2022/05/22 06:09:34;;;;;;;0.55;0.55;;;22.90;59.10;;;;;;4974322;28;20126;-17
2022/05/22 06:12:00;;;;;;;0.45;0.45;;;22.90;59.10;;;;;;4975400;28;20047;-16
2022/05/22 06:14:25;;;;;;;0.73;0.70;;;22.90;59.10;;;;;;4974462;28;20077;-15
2022/05/22 06:16:51;;;;;;;2.00;1.35;;;22.80;59.80;;;;;;4972909;28;20043;-15
2022/05/22 06:19:54;;;;;;;2.38;0.90;;;22.60;59.20;;;;;;4972438;28;20046;-15
2022/05/22 06:22:02;;;;;;;1.52;0.90;;;22.40;59.30;;;;;;4971581;28;20034;-16
2022/05/22 06:24:28;;;;;;;1.75;0.90;;;22.10;59.70;;;;;;4972849;28;20093;-16
2022/05/22 06:26:54;;;;;;;3.30;1.10;;;21.90;60.10;;;;;;4971872;28;20066;-15
2022/05/22 06:29:19;;;;;;;2.42;1.15;;;21.80;60.20;;;;;;4968958;28;20043;-15
2022/05/22 06:31:45;;;;;;;1.25;1.15;;;21.80;60.50;;;;;;4969623;28;20110;-16
2022/05/22 06:34:10;;;;;;;2.00;1.08;;;21.80;60.30;;;;;;4971230;28;20058;-16
2022/05/22 06:36:36;;;;;;;3.05;1.30;;;21.70;60.60;;;;;;4970635;28;20239;-16
2022/05/22 06:41:46;;;;;;;1.63;0.98;;;21.70;60.80;;;;;;4967263;28;20058;-16
2022/05/22 06:44:12;;;;;;;1.85;1.20;;;21.60;60.90;;;;;;4973308;28;20043;-17
2022/05/22 06:46:38;;;;;;;1.83;1.10;;;21.60;60.90;;;;;;4969053;28;20050;-15
2022/05/22 06:49:03;;;;;;;1.10;0.82;;;21.60;61.30;;;;;;4973327;28;20520;-16
2022/05/22 06:51:29;;;;;;;2.55;1.20;;;21.50;61.30;;;;;;4970382;28;20130;-16
2022/05/22 06:53:54;;;;;;;2.08;1.08;;;21.50;61.50;;;;;;4971233;28;20043;-15
2022/05/22 06:56:20;;;;;;;1.95;1.10;;;21.40;61.70;;;;;;4971223;28;20047;-16
2022/05/22 06:58:46;;;;;;;1.92;1.48;;;21.20;62.10;;;;;;4970776;28;20142;-16
2022/05/22 07:01:15;;;;;;;1.35;0.77;;;21.30;62.60;;;;;;4970681;28;20082;-16
2022/05/22 07:03:41;;;;;;;2.70;1.10;;;21.20;62.80;;;;;;4970547;28;20188;-15
2022/05/22 07:06:06;;;;;;;1.95;1.42;;;21.20;63.00;;;;;;4973312;28;20055;-16
2022/05/22 07:08:32;;;;;;;1.30;0.90;;;21.20;62.80;;;;;;4976539;28;20042;-17
2022/05/22 07:13:42;;;;;;;2.05;1.10;;;21.10;62.90;;;;;;4973762;28;21711;-17
2022/05/22 07:16:07;;;;;;;1.20;0.88;;;21.10;63.00;;;;;;4974647;28;20133;-16
2022/05/22 07:18:34;;;;;;;1.10;0.90;;;21.00;63.50;;;;;;4973448;28;20565;-18
2022/05/22 07:21:00;;;;;;;1.50;1.40;;;20.90;63.80;;;;;;4973774;28;20445;-17
2022/05/22 07:23:25;;;;;;;1.88;1.25;;;20.80;64.40;;;;;;4970800;28;20070;-16
2022/05/22 07:25:53;;;;;;;0.80;0.80;;;20.80;64.40;;;;;;4974159;28;20520;-16
2022/05/22 07:28:19;;;;;;;1.63;0.85;;;20.80;64.90;;;;;;4974847;28;20043;-15
2022/05/22 07:30:44;;;;;;;2.63;1.20;;;20.80;64.30;;;;;;4970753;28;20046;-16
2022/05/22 07:33:10;;;;;;;1.73;1.02;;;20.60;64.80;;;;;;4977426;28;20039;-15
2022/05/22 07:35:35;;;;;;;2.10;1.10;;;20.60;65.00;;;;;;4970072;28;20114;-15
2022/05/22 07:38:01;;;;;;;2.45;0.90;;;20.80;64.90;;;;;;4976551;28;20542;-17
2022/05/22 07:40:28;;;;;;;2.28;1.20;;;20.90;64.40;;;;;;4974826;28;20559;-16
2022/05/22 07:42:53;;;;;;;1.17;0.77;;;21.00;64.30;;;;;;4628926;28;10000337;-15
2022/05/22 07:45:19;;;;;;;1.13;0.80;;;21.00;64.40;;;;;;4974418;28;20059;-16
2022/05/22 07:47:45;;;;;;;0.90;0.85;;;21.00;64.40;;;;;;4966013;28;20235;-15
2022/05/22 07:50:16;;;;;;;0.93;0.82;;;21.00;64.20;;;;;;4972730;28;20055;-16
2022/05/22 07:52:42;;;;;;;3.60;1.20;;;21.10;64.30;;;;;;4968694;28;20132;-17
2022/05/22 07:55:14;;;;;;;2.30;1.15;;;21.00;64.60;;;;;;4970000;28;20083;-15
2022/05/22 07:57:43;;;;;;;1.98;0.70;;;20.90;64.90;;;;;;4971470;28;20050;-15
2022/05/22 08:00:09;;;;;;;1.88;1.02;;;20.90;65.10;;;;;;4972451;28;20090;-15
2022/05/22 08:02:35;;;;;;;1.20;1.10;;;21.00;65.10;;;;;;4971614;28;20042;-15
2022/05/22 08:05:01;;;;;;;1.45;1.00;;;20.90;65.00;;;;;;4973299;28;20124;-15
2022/05/22 08:07:26;;;;;;;1.25;0.90;;;21.00;64.80;;;;;;4970643;28;20050;-16
2022/05/22 08:09:52;;;;;;;2.67;1.13;;;21.00;65.10;;;;;;4972044;28;20074;-15
2022/05/22 08:12:18;;;;;;;1.25;1.00;;;21.00;65.70;;;;;;4968537;28;20126;-15
2022/05/22 08:14:46;;;;;;;1.45;0.80;;;21.00;65.10;;;;;;4971124;28;20523;-15
2022/05/22 08:17:12;;;;;;;1.73;1.25;;;20.90;65.30;;;;;;4972352;28;20043;-16
2022/05/22 08:19:37;;;;;;;2.42;1.20;;;21.00;65.40;;;;;;4972433;28;20097;-15
2022/05/22 08:22:03;;;;;;;1.85;1.10;;;21.00;65.40;;;;;;4972444;28;20043;-15
2022/05/22 08:24:29;;;;;;;3.50;1.45;;;21.00;65.50;;;;;;4972952;28;20046;-16
2022/05/22 08:26:54;;;;;;;1.45;1.35;;;21.00;65.50;;;;;;4973402;28;20135;-15
2022/05/22 08:29:20;;;;;;;1.50;1.10;;;21.00;65.50;;;;;;4986804;28;20043;-16
2022/05/22 08:31:46;;;;;;;2.15;1.30;;;21.00;65.50;;;;;;4972444;28;20472;-15
2022/05/22 08:34:13;;;;;;;1.13;0.90;;;21.00;65.60;;;;;;4974260;28;20152;-16
2022/05/22 08:36:38;;;;;;;1.75;1.10;;;21.00;65.50;;;;;;4973289;28;20415;-16
2022/05/22 08:39:05;;;;;;;1.48;0.90;;;21.10;66.50;;;;;;4970570;28;20130;-17
2022/05/22 08:42:00;;;;;;;1.88;1.10;;;21.00;65.20;;;;;;4972063;28;20046;-16
2022/05/22 08:44:30;;;;;;;1.10;0.90;;;21.10;65.30;;;;;;4963895;28;20046;-16
2022/05/22 08:47:01;;;;;;;2.85;1.23;;;21.00;65.50;;;;;;4970064;28;20053;-15
2022/05/22 08:49:36;;;;;;;0.75;0.70;;;21.00;65.50;;;;;;4973630;28;20081;-16
2022/05/22 08:52:24;;;;;;;3.05;1.00;;;21.10;65.70;;;;;;4971770;28;20097;-16
2022/05/22 08:54:53;;;;;;;1.13;1.02;;;21.00;65.50;;;;;;4970605;28;20050;-16
2022/05/22 09:00:06;;;;;;;3.33;0.90;;;21.00;65.30;;;;;;4966478;28;20608;-15
2022/05/22 09:02:43;;;;;;;1.67;0.90;;;21.00;65.00;;;;;;4972775;28;20097;-16
2022/05/22 09:05:15;;;;;;;1.35;1.20;;;21.00;65.00;;;;;;4971444;28;20157;-16
2022/05/22 09:08:13;;;;;;;1.05;0.77;;;21.00;65.30;;;;;;4972522;28;20134;-16
2022/05/22 09:10:45;;;;;;;1.88;1.27;;;21.00;65.30;;;;;;4966536;28;20061;-16
2022/05/22 09:13:40;;;;;;;2.65;1.08;;;21.20;64.80;;;;;;4971626;28;20507;-16
2022/05/22 09:16:18;;;;;;;1.42;0.90;;;21.20;65.00;;;;;;4955186;28;20204;-15
2022/05/22 09:18:52;;;;;;;1.17;0.93;;;21.20;65.30;;;;;;4972220;28;20047;-16
2022/05/22 09:21:50;;;;;;;1.92;1.20;;;21.20;65.50;;;;;;4975903;28;20141;-18
2022/05/22 09:24:43;;;;;;;1.30;1.10;;;21.20;65.70;;;;;;4971653;28;20054;-16
2022/05/22 09:27:28;;;;;;;0.90;0.70;;;21.20;66.10;;;;;;4952943;28;20474;-20
2022/05/22 09:30:02;;;;;;;1.92;1.00;;;21.30;65.70;;;;;;4968211;28;20043;-19
2022/05/22 09:32:43;;;;;;;1.23;0.93;;;21.30;65.70;;;;;;4969147;28;20133;-17
2022/05/22 09:35:37;;;;;;;1.58;1.13;;;21.20;66.10;;;;;;4965985;28;20051;-17
2022/05/22 09:38:08;;;;;;;1.63;0.90;;;21.20;66.10;;;;;;4961770;28;20058;-15
2022/05/22 09:40:42;;;;;;;1.17;1.00;;;21.20;66.30;;;;;;4971835;28;20056;-18
2022/05/22 09:43:23;;;;;;;;;;;21.30;65.70;;;;;;4966638;28;20050;-16
2022/05/22 09:46:17;;;;;;;2.13;1.00;;;21.30;65.70;;;;;;4980694;28;19918;-16
2022/05/22 09:48:59;;;;;;;1.05;0.88;;;21.40;65.50;;;;;;4969347;28;20425;-18
2022/05/22 09:51:25;;;;;;;2.33;1.00;;;21.40;65.40;;;;;;4965945;28;20088;-16
2022/05/22 09:54:08;;;;;;;0.70;0.63;;;21.40;65.20;;;;;;4969884;28;20163;-17
2022/05/22 09:57:01;;;;;;;0.77;0.65;;;21.40;65.10;;;;;;4971619;28;20475;-16
2022/05/22 10:00:02;;;;;;;1.58;0.90;;;21.40;65.00;;;;;;4963353;28;20062;-16
2022/05/22 10:02:34;;;;;;;1.25;0.70;;;21.40;65.00;;;;;;4960077;28;20043;-16
2022/05/22 10:05:29;;;;;;;2.97;1.30;;;21.40;65.00;;;;;;4950771;28;20057;-15
2022/05/22 10:08:11;;;;;;;2.15;0.85;;;21.40;65.40;;;;;;4983566;28;20048;-16
2022/05/22 10:10:47;;;;;;;1.27;1.10;;;21.40;65.60;;;;;;4966534;28;20054;-17
2022/05/22 10:13:18;;;;;;;1.15;0.80;;;21.40;65.70;;;;;;4971576;28;20100;-17
2022/05/22 10:16:06;;;;;;;1.75;1.05;;;21.40;66.30;;;;;;4971552;28;20057;-15
2022/05/22 10:19:20;;;;;;;1.27;0.80;;;21.60;65.70;;;;;;4967735;28;20066;-15
2022/05/22 10:22:10;;;;;;;2.13;1.17;;;21.60;65.50;;;;;;4966659;28;20067;-15
2022/05/22 10:24:36;;;;;;;1.08;1.02;;;21.70;66.30;;;;;;4970237;28;20055;-15
2022/05/22 10:27:25;;;;;;;1.23;1.13;;;21.70;66.50;;;;;;4962527;28;20057;-15
2022/05/22 10:29:57;;;;;;;1.15;0.88;;;21.70;66.50;;;;;;4970766;28;20031;-15
2022/05/22 10:32:29;;;;;;;1.10;1.00;;;21.70;66.50;;;;;;4962279;28;20061;-15
2022/05/22 10:35:23;;;;;;;2.20;1.00;;;21.70;66.50;;;;;;4971184;28;20042;-16
2022/05/22 10:38:02;;;;;;;0.95;0.90;;;21.80;65.90;;;;;;4976282;28;20065;-15
2022/05/22 10:42:45;;;;;;;0.95;0.77;;;21.90;66.10;;;;;;4972141;28;20066;-15
2022/05/22 10:43:13;;;;;;;3.17;2.88;;;21.90;65.90;;;;;;4972503;28;20389;-17
2022/05/22 10:45:39;;;;;;;8.27;5.47;;;22.00;66.50;;;;;;4974994;28;20113;-17
2022/05/22 10:48:19;;;;;;;7.22;5.68;;;22.00;66.30;;;;;;4975021;28;20047;-16
2022/05/22 10:51:12;;;;;;;5.88;5.38;;;22.00;66.00;;;;;;4974468;28;20058;-17
2022/05/22 10:53:51;;;;;;;7.88;4.93;;;22.00;66.00;;;;;;4974225;28;20043;-16
2022/05/22 10:56:22;;;;;;;5.50;4.95;;;22.00;65.80;;;;;;4973406;28;20051;-16
2022/05/22 10:59:05;;;;;;;4.53;4.13;;;22.00;65.60;;;;;;4975270;28;20078;-15
2022/05/22 11:01:32;;;;;;;4.88;4.35;;;22.10;65.70;;;;;;4975359;28;20043;-14
2022/05/22 11:04:11;;;;;;;4.47;4.10;;;22.10;65.20;;;;;;4974851;28;20058;-15
2022/05/22 11:06:51;;;;;;;4.18;3.78;;;22.20;64.80;;;;;;4974878;28;20046;-15
2022/05/22 11:09:29;;;;;;;4.53;3.47;;;22.20;64.60;;;;;;4958766;28;20097;-15
2022/05/22 11:12:27;;;;;;;4.45;3.88;;;22.20;64.60;;;;;;4969174;28;20508;-15
2022/05/22 11:15:11;;;;;;;3.97;3.67;;;22.20;65.00;;;;;;4955395;28;20130;-15
2022/05/22 11:17:37;;;;;;;4.03;3.67;;;22.20;65.00;;;;;;4956819;28;20105;-15
2022/05/22 11:20:10;;;;;;;3.53;3.22;;;22.20;64.70;;;;;;4957508;28;20043;-15
2022/05/22 11:23:00;;;;;;;4.65;3.50;;;22.20;64.70;;;;;;4959055;28;20046;-14
2022/05/22 11:25:27;;;;;;;4.15;3.80;;;22.20;64.80;;;;;;4977326;28;20444;-15
2022/05/22 11:28:16;;;;;;;7.38;3.70;;;22.20;64.60;;;;;;4978381;28;20046;-15
2022/05/22 11:31:19;;;;;;;3.83;3.53;;;22.20;64.40;;;;;;4961642;28;20500;-14
2022/05/22 11:34:07;;;;;;;3.53;3.22;;;22.30;64.60;;;;;;4971542;28;20046;-15
2022/05/22 11:36:51;;;;;;;3.25;2.97;;;22.30;64.60;;;;;;4978722;28;20034;-15
2022/05/22 11:39:23;;;;;;;;;;;22.30;64.50;;;;;;4959592;28;20051;-15
2022/05/22 11:42:32;;;;;;;4.53;3.45;;;22.30;64.40;;;;;;4973674;28;19992;-15
2022/05/22 11:45:22;;;;;;;3.72;3.30;;;22.30;64.20;;;;;;4964649;28;20271;-15
2022/05/22 11:48:08;;;;;;;4.18;3.33;;;22.40;63.80;;;;;;4976068;28;20039;-15
2022/05/22 11:50:33;;;;;;;3.33;2.92;;;22.40;63.70;;;;;;4972341;28;20049;-15
2022/05/22 11:53:15;;;;;;;3.17;2.72;;;22.40;63.80;;;;;;4977152;28;20057;-15
2022/05/22 11:55:41;;;;;;;5.30;3.30;;;22.40;63.60;;;;;;4976376;28;20083;-17
2022/05/22 11:58:34;;;;;;;4.50;3.20;;;22.40;63.40;;;;;;4978334;28;20063;-15
2022/05/22 12:01:12;;;;;;;3.30;3.10;;;22.40;63.50;;;;;;4956258;28;20050;-17
2022/05/22 12:04:01;;;;;;;3.13;2.83;;;22.50;63.60;;;;;;4971488;28;20105;-15
2022/05/22 12:06:44;;;;;;;3.60;2.95;;;22.50;63.40;;;;;;4967733;28;20049;-15
2022/05/22 12:09:35;;;;;;;3.85;3.60;;;22.50;63.60;;;;;;4977184;28;20070;-14
2022/05/22 12:12:23;;;;;;;3.30;3.10;;;22.50;63.30;;;;;;4976582;28;20500;-15
2022/05/22 12:15:15;;;;;;;4.20;2.92;;;22.50;63.60;;;;;;4976438;28;20101;-15
2022/05/22 12:17:53;;;;;;;3.63;3.33;;;22.50;63.10;;;;;;4977986;28;20039;-15
2022/05/22 12:20:22;;;;;;;3.08;2.78;;;22.50;63.20;;;;;;4977724;28;20046;-15
2022/05/22 12:23:10;;;;;;;3.45;3.15;;;22.50;63.10;;;;;;4977213;28;20054;-15
2022/05/22 12:26:08;;;;;;;3.28;2.83;;;22.60;63.20;;;;;;4976341;28;20055;-15
2022/05/22 12:28:42;;;;;;;3.13;2.88;;;22.50;62.80;;;;;;4976840;28;20069;-15
2022/05/22 12:31:21;;;;;;;2.65;2.50;;;22.60;63.00;;;;;;4976641;28;20516;-15
2022/05/22 12:33:47;;;;;;;2.88;2.63;;;22.60;63.20;;;;;;4976107;28;20039;-14
2022/05/22 12:36:13;;;;;;;2.75;2.55;;;22.60;63.20;;;;;;4975832;28;20134;-15
2022/05/22 12:38:44;;;;;;;3.85;2.80;;;22.60;63.40;;;;;;4959804;28;20046;-15
2022/05/22 12:41:42;;;;;;;2.65;2.45;;;22.60;62.80;;;;;;4976172;28;20495;-15
2022/05/22 12:44:07;;;;;;;2.85;2.20;;;22.60;63.10;;;;;;4974556;28;20125;-14
2022/05/22 12:46:33;;;;;;;2.53;2.42;;;22.60;63.00;;;;;;4976216;28;20078;-15
2022/05/22 12:49:05;;;;;;;2.53;2.33;;;22.60;63.20;;;;;;4975031;28;20085;-15
2022/05/22 12:51:36;;;;;;;2.53;2.22;;;22.60;63.30;;;;;;4977500;28;20047;-15
2022/05/22 12:54:22;;;;;;;2.53;2.42;;;22.60;63.10;;;;;;4976291;28;20058;-14
2022/05/22 12:56:48;;;;;;;2.60;2.40;;;22.60;63.20;;;;;;4968537;28;20055;-17
2022/05/22 12:59:23;;;;;;;2.50;2.30;;;22.70;62.60;;;;;;4959167;28;20055;-17
2022/05/22 13:01:54;;;;;;;2.53;2.33;;;22.70;62.40;;;;;;4615341;28;10000511;-17
2022/05/22 13:04:34;;;;;;;2.45;2.35;;;22.70;62.70;;;;;;4958558;28;20057;-18
2022/05/22 13:07:11;;;;;;;2.40;2.20;;;22.70;62.50;;;;;;4955274;28;20055;-18
2022/05/22 13:09:41;;;;;;;2.80;2.70;;;22.70;62.20;;;;;;4959538;28;20097;-18
2022/05/22 13:12:18;;;;;;;2.67;2.47;;;22.70;62.60;;;;;;4958068;28;20054;-18
2022/05/22 13:14:47;;;;;;;2.30;2.15;;;22.70;62.50;;;;;;4960178;28;20428;-18
2022/05/22 13:17:13;;;;;;;2.38;2.13;;;22.70;62.30;;;;;;4957129;28;20047;-18
2022/05/22 13:19:53;;;;;;;2.25;2.10;;;22.70;62.50;;;;;;4958443;28;20077;-18
2022/05/22 13:22:34;;;;;;;2.28;2.08;;;22.80;62.20;;;;;;4956256;28;20129;-18
2022/05/22 13:25:00;;;;;;;2.33;2.03;;;22.80;62.50;;;;;;4955632;28;20061;-18